Aircraft
UPR1037 PT-CAA C 208B
KASN
Talladega Municipal Airport
KGTR
Golden Triangle Regional Airport
Pilot:: Klebson
Aircraft:: Black Square Caravan Professional Gear PT-ATY
Alternate: KTUP
Network: ivao
FLIGHT DETAILS
Distance: 127nm Duration 00h 18m
Cruise Speed: Flight Level: 8000
Validation: Validated Type Charter
Flight Fuel
ZFW: 1993
Block Fuel/Initial FOB: 518
Flight Fuel: 433
Cargo
Passengers: 8
Cargo: 100
ROUTE
ROUTE: VUZ IGB
REMARKS:
DATE
Date: 26-08-19
Departure Time: 1432
Cargo: 100
FLIGHT DETAILS
Crashed: No
Validator Comments: Validado por Claudenir
Flight Rating: 100
LANDING ANALYSIS
Landing wind: 270º/1 kt
Landing heading: 183º
Landing VS:: -79 ft/min
Landing IAS:: 85 kt
Landing Force G: 1 G
Landing Bank: -1
Landing Pitch: -3
Landing Flaps: 33
Navigation Lights: ON
Landing Lights: ON
Beacon Lights: ON
Strobe Lights: ON
viserfly

ALTITUDE CHART

viserfly

MAIN EVENTS

DATE EVENT IAS ALTITUDE
2026-08-19 14:31:01 FLYacars version 1.3.6 0 536
2026-08-19 14:31:02 Aircraft boarding in progress 0 536
2026-08-19 14:31:02 Navigation Lights ON 0 536
2026-08-19 14:31:02 Beacon Lights ON 0 536
2026-08-19 14:31:02 Strobe Lights ON 0 536
2026-08-19 14:31:02 Taxi Lights ON 0 536
2026-08-19 14:31:02 Starting Engine 1 0 536
2026-08-19 14:31:02 FLAPS 66% 0 533
2026-08-19 14:31:02 Landing Lights ON 0 534
2026-08-19 14:32:14 Aircraft taxiing to runway 5 534
2026-08-19 14:32:28 Detected Take-off roll, HDG 228, IAS 75kt, GS 77kt, G-force 1.0g, Pitch -1.6deg, Bank 0.4deg, Wind 271/01kt, Temp 15°C 75 531
2026-08-19 14:32:28 Airborne 75 531
2026-08-19 14:32:56 FLAPS 33% 83kt, ALT 1216ft 83 1216
2026-08-19 14:33:25 FLAPS 0% 102kt, ALT 2223ft 102 2223
2026-08-19 14:34:09 Aircraft on Top Of Climb at 7994ft, IAS 117kt, GS 131kt, HDG 282deg, TAT 0deg, WIND 270/2kt 117 7994
2026-08-19 14:42:56 Aircraft on Top Of Descent at 7495ft, IAS 166kt, GS 183kt, HDG 274deg, TAT 0deg, WIND 272/2kt 166 7495
2026-08-19 14:46:35 Simulator Paused 155 2993
2026-08-19 14:48:51 Simulator Un-Paused 155 2993
2026-08-19 14:51:01 FLAPS 33% 85kt, ALT 268ft 85 268
2026-08-19 14:51:02 Landed at destination with a landing rate of -79fpm, G-force 1.0g, Pitch -2.7deg, Bank -0.5deg, HDG 183deg, IAS 85kt, GS 85kt, Wind 270/01kt, Temp 14°C 85 267
2026-08-19 14:51:15 Aircraft taxiing to apron 25 267
2026-08-19 14:51:28 Aircraft at gate/stand, ground services are moving into position, disembarkation has begun. Remaining FOB 85kg FLYacars v1.3.6 0 267
viserfly

ACARS DATA

DATE IAS GS ALTITUDE FUEL CONSUMED OAT FLIGHT STATUS
2026-08-19 14:31:31 0 0 534 271 14 BOARDING
2026-08-19 14:32:01 0 0 534 272 14 BOARDING
2026-08-19 14:32:31 85 86 554 273 14 TAKEOFF
2026-08-19 14:33:01 91 91 1347 275 13 TAKEOFF
2026-08-19 14:33:31 114 117 3094 278 10 CLIMB
2026-08-19 14:34:01 109 119 7149 284 1 CLIMB
2026-08-19 14:34:31 162 182 8009 290 0 ENROUTE
2026-08-19 14:35:01 162 181 8001 296 0 ENROUTE
2026-08-19 14:35:31 163 183 8008 301 0 ENROUTE
2026-08-19 14:36:01 162 182 8007 307 0 ENROUTE
2026-08-19 14:36:31 162 181 8004 313 0 ENROUTE
2026-08-19 14:37:01 163 182 8003 319 0 ENROUTE
2026-08-19 14:37:31 162 182 7998 325 0 ENROUTE
2026-08-19 14:38:01 162 182 7999 331 0 ENROUTE
2026-08-19 14:38:31 162 181 7999 337 0 ENROUTE
2026-08-19 14:39:01 162 181 7998 343 0 ENROUTE
2026-08-19 14:39:31 162 182 8001 349 0 ENROUTE
2026-08-19 14:40:01 163 182 8008 355 0 ENROUTE
2026-08-19 14:40:31 162 181 8000 361 0 ENROUTE
2026-08-19 14:41:01 162 182 7996 367 0 ENROUTE
2026-08-19 14:41:31 164 183 8007 373 0 ENROUTE
2026-08-19 14:42:01 163 182 8001 379 0 ENROUTE
2026-08-19 14:42:31 163 182 7998 385 0 ENROUTE
2026-08-19 14:43:01 163 180 7184 390 1 DESCENT
2026-08-19 14:43:31 166 178 5409 395 4 DESCENT
2026-08-19 14:44:01 166 173 3609 401 8 DESCENT
2026-08-19 14:44:31 153 161 2990 406 9 ENROUTE
2026-08-19 14:45:01 155 164 2990 412 9 ENROUTE
2026-08-19 14:45:31 157 165 2998 417 9 ENROUTE
2026-08-19 14:46:01 156 163 3005 423 9 ENROUTE
2026-08-19 14:46:31 155 163 2994 428 9 ENROUTE
2026-08-19 14:47:01 155 162 2993 429 9 ENROUTE
2026-08-19 14:47:31 155 162 2993 429 9 ENROUTE
2026-08-19 14:48:01 155 162 2993 429 9 ENROUTE
2026-08-19 14:48:31 155 162 2993 429 9 ENROUTE
2026-08-19 14:49:01 163 167 2803 430 9 DESCENT
2026-08-19 14:49:31 124 126 1463 430 12 DESCENT
2026-08-19 14:50:01 100 102 983 431 13 DESCENT
2026-08-19 14:50:31 101 102 482 432 14 DESCENT
2026-08-19 14:51:01 85 86 267 432 14 DESCENT
  • Join our VA!

    It has been 11 years of great learning, friendships, and stories.

  • Sign up now!